Time;durP1;ratioP1;P1;durP2;ratioP2;P2;SDS_P1;SDS_P2;PMS_P1;PMS_P2;Temp;Humidity;BMP_temperature;BMP_pressure;BME280_temperature;BME280_humidity;BME280_pressure;Samples;Min_cycle;Max_cycle;Signal;HPM_P1;HPM_P2
2022/01/10 00:02:06;;;;;;;;;;;;;;;13.11;91.76;101372.38;5037826;28;19921;-62
2022/01/10 00:04:33;;;;;;;;;;;;;;;13.10;91.88;101364.25;5033287;28;20012;-62
2022/01/10 00:07:00;;;;;;;;;;;;;;;13.09;91.73;101363.38;5043013;28;20324;-62
2022/01/10 00:09:26;;;;;;;;;;;;;;;13.11;91.70;101365.91;5048318;28;21573;-62
2022/01/10 00:11:53;;;;;;;;;;;;;;;13.12;91.80;101364.78;5035866;28;19921;-62
2022/01/10 00:14:20;;;;;;;;;;;;;;;13.13;91.77;101360.84;5041282;28;20003;-61
2022/01/10 00:16:46;;;;;;;;;;;;;;;13.15;91.77;101361.44;5048908;28;19921;-60
2022/01/10 00:19:13;;;;;;;;;;;;;;;13.23;91.88;101358.06;5045397;28;19928;-60
2022/01/10 00:21:40;;;;;;;;;;;;;;;13.31;91.76;101349.16;5046086;28;20035;-59
2022/01/10 00:24:06;;;;;;;;;;;;;;;13.37;91.61;101358.44;5048098;28;20352;-60
2022/01/10 00:26:33;;;;;;;;;;;;;;;13.38;91.41;101349.72;5047289;28;20016;-60
2022/01/10 00:29:00;;;;;;;;;;;;;;;13.38;91.49;101349.72;5037508;28;20340;-59
2022/01/10 00:31:27;;;;;;;;;;;;;;;13.41;91.48;101346.34;5046538;28;19982;-59
2022/01/10 00:33:53;;;;;;;;;;;;;;;13.43;91.38;101340.44;5035429;28;19955;-57
2022/01/10 00:36:20;;;;;;;;;;;;;;;13.50;91.49;101341.88;5038599;28;19976;-59
2022/01/10 00:38:47;;;;;;;;;;;;;;;13.53;91.21;101332.03;5039944;28;20004;-61
2022/01/10 00:41:13;;;;;;;;;;;;;;;13.50;91.07;101339.06;5042454;28;19963;-60
2022/01/10 00:43:45;;;;;;;;;;;;;;;13.42;91.23;101328.38;5046111;28;20016;-61
2022/01/10 00:46:18;;;;;;;;;;;;;;;13.36;91.25;101332.31;5035642;28;20014;-61
2022/01/10 00:48:44;;;;;;;;;;;;;;;13.31;91.11;101332.31;5034917;28;20008;-58
2022/01/10 00:51:11;;;;;;;;;;;;;;;13.25;91.34;101327.81;5038386;28;19971;-61
2022/01/10 00:53:44;;;;;;;;;;;;;;;13.24;91.51;101334.56;5036535;28;19967;-59
2022/01/10 00:56:10;;;;;;;;;;;;;;;13.23;91.40;101332.81;5050101;28;19971;-58
2022/01/10 00:58:37;;;;;;;;;;;;;;;13.25;91.50;101333.44;5045142;28;19948;-60
2022/01/10 01:01:05;;;;;;;;;;;;;;;13.21;91.51;101330.31;5046106;28;19971;-60
2022/01/10 01:03:32;;;;;;;;;;;;;;;13.23;91.42;101327.22;5043141;28;19921;-61
2022/01/10 01:05:59;;;;;;;;;;;;;;;13.28;91.67;101321.66;5036668;28;19960;-59
2022/01/10 01:08:29;;;;;;;;;;;;;;;13.44;91.65;101320.53;5036131;28;19964;-60
2022/01/10 01:13:53;;;;;;;;;;;;;;;13.51;91.11;101329.50;5062792;28;20303;-64
2022/01/10 01:16:41;;;;;;;;;;;;;;;13.53;91.13;101329.22;5040874;28;20013;-64
2022/01/10 01:24:29;;;;;;;;;;;;;;;13.40;91.20;101321.38;5043575;28;20717;-67
2022/01/10 01:26:56;;;;;;;;;;;;;;;13.43;91.32;101321.63;5043481;28;19933;-66
2022/01/10 01:29:24;;;;;;;;;;;;;;;13.43;91.07;101316.03;5055808;28;19964;-64
2022/01/10 01:31:51;;;;;;;;;;;;;;;13.38;91.22;101315.22;5048222;28;20003;-64
2022/01/10 01:34:19;;;;;;;;;;;;;;;13.31;91.09;101309.88;5048495;28;19921;-64
2022/01/10 01:36:49;;;;;;;;;;;;;;;13.26;91.10;101312.66;5040041;28;19935;-63
2022/01/10 01:39:24;;;;;;;;;;;;;;;13.21;91.18;101312.66;5035526;28;19925;-63
2022/01/10 01:41:54;;;;;;;;;;;;;;;13.18;91.27;101316.00;5050426;28;20008;-62
2022/01/10 01:44:22;;;;;;;;;;;;;;;13.18;91.43;101311.25;5035572;28;19921;-63
2022/01/10 01:46:48;;;;;;;;;;;;;;;13.14;91.50;101321.34;5038638;28;19921;-63
2022/01/10 01:49:15;;;;;;;;;;;;;;;13.15;91.51;101316.56;5035971;28;19942;-63
2022/01/10 01:51:43;;;;;;;;;;;;;;;13.15;91.45;101311.78;5038912;28;20349;-62
2022/01/10 01:54:10;;;;;;;;;;;;;;;13.13;91.47;101319.66;5045763;28;20039;-62
2022/01/10 01:56:38;;;;;;;;;;;;;;;13.14;91.58;101315.72;5049679;28;19925;-60
2022/01/10 01:59:06;;;;;;;;;;;;;;;13.13;91.53;101316.00;5039313;28;20011;-67
2022/01/10 02:01:32;;;;;;;;;;;;;;;13.13;91.48;101316.00;5039101;28;19995;-67
2022/01/10 02:03:59;;;;;;;;;;;;;;;13.10;91.59;101316.56;5044218;28;20066;-66
2022/01/10 02:06:27;;;;;;;;;;;;;;;13.14;91.65;101314.88;5038394;28;20015;-66
2022/01/10 02:08:54;;;;;;;;;;;;;;;13.13;91.46;101313.19;5037484;28;19936;-63
2022/01/10 02:11:20;;;;;;;;;;;;;;;13.11;91.58;101309.84;5044314;28;20381;-60
2022/01/10 02:13:47;;;;;;;;;;;;;;;13.13;91.59;101313.19;5041324;28;19921;-60
2022/01/10 02:16:20;;;;;;;;;;;;;;;13.13;91.67;101318.78;5041803;28;19995;-60
2022/01/10 02:18:49;;;;;;;;;;;;;;;13.19;91.66;101320.50;5043114;28;20008;-60
2022/01/10 02:21:16;;;;;;;;;;;;;;;13.17;91.56;101323.59;5044788;28;19975;-61
2022/01/10 02:23:43;;;;;;;;;;;;;;;13.19;91.64;101318.53;5041912;28;19987;-59
2022/01/10 02:26:09;;;;;;;;;;;;;;;13.16;91.68;101313.50;5036783;28;20007;-60
2022/01/10 02:28:36;;;;;;;;;;;;;;;13.15;91.65;101317.41;5047311;28;20307;-58
2022/01/10 02:31:03;;;;;;;;;;;;;;;13.11;91.67;101318.25;5040614;28;19928;-60
2022/01/10 02:33:31;;;;;;;;;;;;;;;13.09;91.81;101312.91;5047315;28;19956;-60
2022/01/10 02:38:28;;;;;;;;;;;;;;;13.12;91.75;101319.91;5035288;28;20328;-59
2022/01/10 02:40:56;;;;;;;;;;;;;;;13.11;91.67;101310.69;5038648;28;20012;-59
2022/01/10 02:43:22;;;;;;;;;;;;;;;13.12;91.74;101317.97;5035555;28;19960;-59
2022/01/10 02:45:49;;;;;;;;;;;;;;;13.15;91.76;101316.56;5037419;28;19972;-59
2022/01/10 02:48:16;;;;;;;;;;;;;;;13.15;91.81;101320.22;5036720;28;19932;-59
2022/01/10 02:50:42;;;;;;;;;;;;;;;13.17;91.86;101319.94;5033707;28;20016;-59
2022/01/10 02:53:09;;;;;;;;;;;;;;;13.16;91.77;101323.84;5043955;28;20015;-58
2022/01/10 02:55:36;;;;;;;;;;;;;;;13.14;91.73;101320.50;5039549;28;19925;-59
2022/01/10 02:58:02;;;;;;;;;;;;;;;13.13;91.78;101318.78;5042021;28;19956;-59
2022/01/10 03:00:29;;;;;;;;;;;;;;;13.09;91.70;101324.13;5029608;28;20023;-59
2022/01/10 03:02:57;;;;;;;;;;;;;;;13.13;91.86;101324.41;5044571;28;19935;-58
2022/01/10 03:05:25;;;;;;;;;;;;;;;13.14;91.85;101309.28;5044333;28;20398;-57
2022/01/10 03:07:53;;;;;;;;;;;;;;;13.10;91.74;101319.38;5039950;28;20054;-57
2022/01/10 03:10:20;;;;;;;;;;;;;;;13.05;91.74;101318.22;5037715;28;20020;-56
2022/01/10 03:12:48;;;;;;;;;;;;;;;13.05;91.64;101323.00;5034500;28;20011;-57
2022/01/10 03:15:14;;;;;;;;;;;;;;;13.05;91.81;101323.84;5030730;28;19971;-56
2022/01/10 03:17:43;;;;;;;;;;;;;;;13.05;91.89;101318.22;5042566;28;19927;-56
2022/01/10 03:20:10;;;;;;;;;;;;;;;13.04;91.72;101322.16;5034631;28;20015;-55
2022/01/10 03:22:37;;;;;;;;;;;;;;;13.05;91.94;101321.03;5040056;28;19999;-56
2022/01/10 03:25:04;;;;;;;;;;;;;;;13.04;91.82;101315.72;5048775;28;19927;-55
2022/01/10 03:27:31;;;;;;;;;;;;;;;13.05;91.96;101307.00;5042596;28;20019;-59
2022/01/10 03:29:57;;;;;;;;;;;;;;;13.16;92.02;101313.50;5040536;28;20404;-58
2022/01/10 03:32:25;;;;;;;;;;;;;;;13.17;91.84;101303.94;5037172;28;20011;-58
2022/01/10 03:34:52;;;;;;;;;;;;;;;13.13;91.66;101296.34;5040031;28;20015;-58
2022/01/10 03:37:18;;;;;;;;;;;;;;;13.09;91.79;101295.25;5041525;28;20386;-58
2022/01/10 03:39:45;;;;;;;;;;;;;;;13.05;91.83;101295.78;5036501;28;19999;-58
2022/01/10 03:42:12;;;;;;;;;;;;;;;13.04;91.74;101294.13;5039064;28;20031;-59
2022/01/10 03:44:39;;;;;;;;;;;;;;;13.02;91.78;101292.72;5041509;28;20007;-63
2022/01/10 03:47:09;;;;;;;;;;;;;;;13.01;91.81;101293.84;5042638;28;19924;-59
2022/01/10 03:49:36;;;;;;;;;;;;;;;12.95;91.83;101284.56;5035833;28;20066;-58
2022/01/10 03:52:03;;;;;;;;;;;;;;;12.94;91.86;101285.69;5049839;28;20415;-54
2022/01/10 03:54:30;;;;;;;;;;;;;;;12.92;91.79;101290.75;5038277;28;19999;-54
2022/01/10 03:56:57;;;;;;;;;;;;;;;12.91;91.86;101291.88;5041950;28;20443;-54
2022/01/10 03:59:23;;;;;;;;;;;;;;;12.90;91.86;101287.38;5036727;28;20349;-57
2022/01/10 04:01:51;;;;;;;;;;;;;;;12.87;91.92;101285.13;5038719;28;20019;-55
2022/01/10 04:04:18;;;;;;;;;;;;;;;12.88;92.01;101295.22;5035226;28;19967;-59
2022/01/10 04:06:45;;;;;;;;;;;;;;;12.88;92.06;101298.03;5034980;28;20012;-70
2022/01/10 04:09:12;;;;;;;;;;;;;;;12.90;92.04;101292.16;5041867;28;19999;-69
2022/01/10 04:11:39;;;;;;;;;;;;;;;12.89;92.08;101291.31;5040872;28;19921;-67
2022/01/10 04:14:05;;;;;;;;;;;;;;;12.88;92.13;101295.22;5043309;28;20344;-67
2022/01/10 04:16:32;;;;;;;;;;;;;;;12.89;92.16;101294.13;5047192;28;20011;-68
2022/01/10 04:18:59;;;;;;;;;;;;;;;12.89;92.08;101290.44;5043013;28;20008;-67
2022/01/10 04:21:26;;;;;;;;;;;;;;;12.89;92.14;101280.09;5039186;28;19927;-70
2022/01/10 04:23:52;;;;;;;;;;;;;;;12.89;92.03;101282.91;5037003;28;19963;-68
2022/01/10 04:26:19;;;;;;;;;;;;;;;12.90;92.12;101286.53;5040170;28;19956;-69
2022/01/10 04:28:46;;;;;;;;;;;;;;;12.89;92.16;101280.09;5040866;28;20007;-59
2022/01/10 04:31:12;;;;;;;;;;;;;;;12.90;92.19;101281.78;5028524;28;19971;-60
2022/01/10 04:33:39;;;;;;;;;;;;;;;12.92;92.29;101281.50;5028946;28;19974;-62
2022/01/10 04:36:06;;;;;;;;;;;;;;;12.92;92.27;101279.56;5047834;28;19956;-59
2022/01/10 04:38:34;;;;;;;;;;;;;;;12.90;92.03;101287.38;5048897;28;20011;-59
2022/01/10 04:41:02;;;;;;;;;;;;;;;12.87;92.13;101282.34;5038109;28;21121;-58
2022/01/10 04:43:29;;;;;;;;;;;;;;;12.87;92.11;101281.50;5039008;28;20011;-59
2022/01/10 04:46:00;;;;;;;;;;;;;;;12.87;92.18;101278.69;5068036;28;19980;-58
2022/01/10 04:48:27;;;;;;;;;;;;;;;12.89;92.17;101279.25;5052455;28;19927;-63
2022/01/10 04:51:13;;;;;;;;;;;;;;;12.89;92.13;101274.50;5036981;28;19921;-60
2022/01/10 04:53:41;;;;;;;;;;;;;;;12.90;92.19;101264.13;5039650;28;20020;-60
2022/01/10 04:56:08;;;;;;;;;;;;;;;12.92;92.27;101273.94;5047062;28;20049;-62
2022/01/10 04:58:34;;;;;;;;;;;;;;;12.91;92.22;101277.84;5040313;28;20028;-62
2022/01/10 05:01:02;;;;;;;;;;;;;;;12.90;92.19;101269.72;5045646;28;19943;-62
2022/01/10 05:03:29;;;;;;;;;;;;;;;12.89;92.12;101270.81;5045431;28;19920;-60
2022/01/10 05:05:56;;;;;;;;;;;;;;;12.89;92.17;101273.63;5039469;28;20288;-61
2022/01/10 05:08:23;;;;;;;;;;;;;;;12.86;92.06;101269.44;5049464;28;19960;-61
2022/01/10 05:10:50;;;;;;;;;;;;;;;12.84;92.06;101268.88;5035630;28;19966;-61
2022/01/10 05:13:17;;;;;;;;;;;;;;;12.81;92.16;101264.66;5045126;28;20008;-61
2022/01/10 05:15:46;;;;;;;;;;;;;;;12.79;92.22;101263.28;5045559;28;21237;-61
2022/01/10 05:18:13;;;;;;;;;;;;;;;12.79;92.13;101257.66;5038578;28;19979;-61
2022/01/10 05:20:40;;;;;;;;;;;;;;;12.78;92.38;101261.56;5048869;28;20015;-58
2022/01/10 05:23:08;;;;;;;;;;;;;;;12.78;92.29;101255.97;5035444;28;19990;-58
2022/01/10 05:25:39;;;;;;;;;;;;;;;12.81;92.32;101253.44;5040224;28;20032;-61
2022/01/10 05:28:10;;;;;;;;;;;;;;;12.87;92.43;101253.47;5035095;28;19996;-63
2022/01/10 05:30:38;;;;;;;;;;;;;;;12.89;92.52;101257.69;5041460;28;20349;-61
2022/01/10 05:33:06;;;;;;;;;;;;;;;12.90;92.52;101253.75;5035409;28;20288;-62
2022/01/10 05:35:32;;;;;;;;;;;;;;;12.95;92.56;101255.69;5023563;28;19921;-61
2022/01/10 05:37:59;;;;;;;;;;;;;;;12.96;92.35;101260.22;5028764;28;20015;-67
2022/01/10 05:40:25;;;;;;;;;;;;;;;12.97;92.41;101256.28;5044677;28;20011;-66
2022/01/10 05:42:52;;;;;;;;;;;;;;;13.14;92.51;101251.22;5038394;28;20016;-68
2022/01/10 05:45:19;;;;;;;;;;;;;;;13.24;92.23;101259.66;5043727;28;19929;-68
2022/01/10 05:47:46;;;;;;;;;;;;;;;13.23;91.97;101262.72;5038180;28;20012;-68
2022/01/10 05:50:17;;;;;;;;;;;;;;;13.27;92.13;101263.88;5044502;28;20339;-70
2022/01/10 05:52:43;;;;;;;;;;;;;;;13.23;91.75;101274.78;5042981;28;20115;-64
2022/01/10 05:55:10;;;;;;;;;;;;;;;13.11;91.71;101277.03;5042098;28;19921;-61
2022/01/10 05:57:37;;;;;;;;;;;;;;;13.01;91.76;101272.25;5042594;28;20008;-59
2022/01/10 06:00:04;;;;;;;;;;;;;;;12.94;91.66;101282.91;5046117;28;20016;-57
2022/01/10 06:02:31;;;;;;;;;;;;;;;12.87;91.79;101275.88;5038116;28;19921;-58
2022/01/10 06:04:59;;;;;;;;;;;;;;;12.82;91.97;101282.34;5034418;28;19928;-57
2022/01/10 06:07:26;;;;;;;;;;;;;;;12.79;92.15;101280.94;5043056;28;20375;-58
2022/01/10 06:09:53;;;;;;;;;;;;;;;12.76;92.18;101284.28;5043386;28;19929;-57
2022/01/10 06:12:19;;;;;;;;;;;;;;;12.77;92.29;101285.13;5042845;28;20106;-59
2022/01/10 06:14:47;;;;;;;;;;;;;;;12.76;92.26;101283.44;5038843;28;20368;-59
2022/01/10 06:17:13;;;;;;;;;;;;;;;12.76;92.38;101280.63;5040873;28;19927;-59
2022/01/10 06:19:40;;;;;;;;;;;;;;;12.76;92.36;101297.47;5040202;28;19932;-62
2022/01/10 06:22:07;;;;;;;;;;;;;;;12.76;92.47;101291.84;5045350;28;20289;-62
2022/01/10 06:24:34;;;;;;;;;;;;;;;12.75;92.39;101290.16;5025956;28;19935;-68
2022/01/10 06:27:01;;;;;;;;;;;;;;;12.74;92.32;101294.91;5032944;28;19925;-64
2022/01/10 06:29:27;;;;;;;;;;;;;;;12.73;92.38;101298.00;5037407;28;20491;-65
2022/01/10 06:31:54;;;;;;;;;;;;;;;12.72;92.49;101299.13;5045290;28;20003;-61
2022/01/10 06:34:21;;;;;;;;;;;;;;;12.72;92.53;101299.13;5032260;28;19920;-60
2022/01/10 06:36:47;;;;;;;;;;;;;;;12.73;92.47;101300.81;5038954;28;20016;-61
2022/01/10 06:39:14;;;;;;;;;;;;;;;12.74;92.53;101303.31;5040853;28;20003;-61
2022/01/10 06:41:41;;;;;;;;;;;;;;;12.73;92.66;101298.84;5040716;28;20016;-60
2022/01/10 06:44:10;;;;;;;;;;;;;;;12.75;92.51;101298.56;5034602;28;20384;-62
2022/01/10 06:46:36;;;;;;;;;;;;;;;12.74;92.45;101294.91;5036475;28;20011;-63
2022/01/10 06:49:03;;;;;;;;;;;;;;;12.73;92.42;101312.03;5037943;28;19955;-63
2022/01/10 06:51:30;;;;;;;;;;;;;;;12.72;92.61;101308.38;5035198;28;20019;-61
2022/01/10 06:53:56;;;;;;;;;;;;;;;12.73;92.54;101309.22;5033490;28;20015;-64
2022/01/10 06:56:23;;;;;;;;;;;;;;;12.72;92.57;101301.94;5064881;28;19921;-62
2022/01/10 06:58:50;;;;;;;;;;;;;;;12.71;92.52;101301.06;5040702;28;20342;-61
2022/01/10 07:01:19;;;;;;;;;;;;;;;12.72;92.53;101307.53;5036952;28;20020;-61
2022/01/10 07:03:46;;;;;;;;;;;;;;;12.70;92.53;101306.97;5040668;28;19959;-62
2022/01/10 07:06:13;;;;;;;;;;;;;;;12.68;92.48;101312.00;5032634;28;20012;-62
2022/01/10 07:08:39;;;;;;;;;;;;;;;12.64;92.45;101316.47;5036097;28;20505;-62
2022/01/10 07:11:06;;;;;;;;;;;;;;;12.59;92.44;101308.06;5036449;28;19921;-62
2022/01/10 07:13:33;;;;;;;;;;;;;;;12.55;92.63;101308.63;5035486;28;19927;-61
2022/01/10 07:15:59;;;;;;;;;;;;;;;12.54;92.60;101318.13;5036482;28;20016;-61
2022/01/10 07:18:26;;;;;;;;;;;;;;;12.51;92.63;101310.28;5045136;28;19963;-61
2022/01/10 07:20:53;;;;;;;;;;;;;;;12.50;92.79;101316.16;5030946;28;19925;-61
2022/01/10 07:23:19;;;;;;;;;;;;;;;12.49;92.69;101318.13;5035166;28;19975;-61
2022/01/10 07:25:46;;;;;;;;;;;;;;;12.48;92.76;101319.25;5044315;28;19921;-59
2022/01/10 07:28:13;;;;;;;;;;;;;;;12.48;92.73;101313.63;5037873;28;20003;-69
2022/01/10 07:30:39;;;;;;;;;;;;;;;12.47;92.84;101316.69;5035443;28;19965;-59
2022/01/10 07:33:06;;;;;;;;;;;;;;;12.45;92.82;101319.78;5038801;28;20020;-58
2022/01/10 07:35:33;;;;;;;;;;;;;;;12.44;92.83;101323.69;5042676;28;20361;-58
2022/01/10 07:38:00;;;;;;;;;;;;;;;12.44;92.84;101326.47;5037122;28;20004;-59
2022/01/10 07:40:26;;;;;;;;;;;;;;;12.42;92.77;101322.28;5032790;28;19927;-55
2022/01/10 07:42:53;;;;;;;;;;;;;;;12.51;92.97;101331.84;5035531;28;20028;-54
2022/01/10 07:45:20;;;;;;;;;;;;;;;12.52;92.78;101334.38;5033049;28;19999;-54
2022/01/10 07:47:47;;;;;;;;;;;;;;;12.46;92.73;101335.47;5051134;28;20365;-54
2022/01/10 07:50:13;;;;;;;;;;;;;;;12.42;92.68;101331.53;5035057;28;19943;-53
2022/01/10 07:52:40;;;;;;;;;;;;;;;12.40;92.71;101342.16;5038048;28;19925;-53
2022/01/10 07:55:07;;;;;;;;;;;;;;;12.37;92.70;101345.50;5048287;28;20333;-54
2022/01/10 07:58:04;;;;;;;5.80;1.97;;;;;;;12.59;92.35;101345.31;5056433;28;20403;-55
2022/01/10 08:00:31;;;;;;;4.17;1.90;;;;;;;12.62;92.18;101349.53;5053788;28;20073;-55
2022/01/10 08:02:58;;;;;;;6.07;1.47;;;;;;;12.62;92.18;101343.94;5046477;28;20049;-54
2022/01/10 08:05:25;;;;;;;7.93;2.10;;;;;;;12.62;92.05;101341.13;5043003;28;20045;-55
2022/01/10 08:07:52;;;;;;;6.67;2.07;;;;;;;12.46;91.93;101324.25;5037415;28;20088;-55
2022/01/10 08:10:19;;;;;;;6.00;2.57;;;;;;;12.61;91.95;101357.09;5041519;28;20481;-55
2022/01/10 08:12:46;;;;;;;7.37;2.80;;;;;;;12.60;91.97;101361.00;5047742;28;20127;-56
2022/01/10 08:15:13;;;;;;;7.90;2.73;;;;;;;12.55;91.99;101344.19;5036737;28;20171;-53
2022/01/10 08:17:42;;;;;;;5.60;2.50;;;;;;;12.63;91.75;101360.47;5041447;28;20144;-54
2022/01/10 08:20:09;;;;;;;6.53;2.40;;;;;;;12.64;91.88;101355.69;5037887;28;20052;-54
2022/01/10 08:22:36;;;;;;;9.00;3.37;;;;;;;12.61;91.72;101361.84;5042368;28;20072;-54
2022/01/10 08:25:04;;;;;;;9.73;3.93;;;;;;;12.64;91.76;101366.91;5038421;28;20103;-54
2022/01/10 08:27:31;;;;;;;7.20;3.10;;;;;;;12.63;91.71;101354.88;5040120;28;20136;-53
2022/01/10 08:29:57;;;;;;;6.13;2.50;;;;;;;12.62;91.73;101357.94;5039308;28;20053;-53
2022/01/10 08:32:24;;;;;;;7.00;2.40;;;;;;;12.65;91.58;101363.84;5037735;28;20048;-54
2022/01/10 08:34:51;;;;;;;6.57;2.73;;;;;;;12.66;91.74;101371.13;5042789;28;20099;-54
2022/01/10 08:37:18;;;;;;;5.20;2.40;;;;;;;12.62;91.72;101369.16;5044297;28;20141;-54
2022/01/10 08:39:49;;;;;;;5.27;2.63;;;;;;;12.63;91.69;101373.63;5039434;28;20072;-54
2022/01/10 08:42:20;;;;;;;8.87;2.77;;;;;;;12.68;91.46;101373.66;5040708;28;20111;-53
2022/01/10 08:44:49;;;;;;;7.33;3.17;;;;;;;12.68;91.74;101373.66;5032343;28;20107;-55
2022/01/10 08:47:19;;;;;;;6.57;2.50;;;;;;;12.66;91.75;101371.13;5043287;28;20049;-53
2022/01/10 08:49:47;;;;;;;9.47;2.90;;;;;;;12.68;91.64;101357.66;5029865;28;20041;-54
2022/01/10 08:52:15;;;;;;;7.37;2.47;;;;;;;12.71;91.65;101364.69;5028839;28;20140;-54
2022/01/10 08:54:42;;;;;;;10.80;2.77;;;;;;;12.71;91.62;101361.88;5035118;28;20052;-53
2022/01/10 08:57:09;;;;;;;8.63;3.67;;;;;;;12.71;91.58;101368.31;5033969;28;20116;-53
2022/01/10 08:59:35;;;;;;;6.67;2.87;;;;;;;12.70;91.60;101365.81;5043116;28;20143;-54
2022/01/10 09:02:02;;;;;;;7.73;2.67;;;;;;;12.70;91.67;101368.63;5028421;28;20073;-54
2022/01/10 09:04:29;;;;;;;7.53;2.80;;;;;;;12.56;91.56;101354.28;5034916;28;20515;-53
2022/01/10 09:07:02;;;;;;;4.93;2.80;;;;;;;12.65;91.68;101375.06;5038758;28;20048;-52
2022/01/10 09:09:30;;;;;;;4.95;3.03;;;;;;;12.59;91.79;101359.34;5021708;28;20600;-52
2022/01/10 09:11:57;;;;;;;8.47;4.10;;;;;;;12.64;91.60;101370.56;5026068;28;20088;-53
2022/01/10 09:14:23;;;;;;;9.80;3.07;;;;;;;12.67;91.87;101366.38;5021698;28;20129;-53
2022/01/10 09:16:50;;;;;;;8.90;3.07;;;;;;;12.73;92.01;101376.47;5027442;28;20567;-53
2022/01/10 09:19:18;;;;;;;6.30;2.73;;;;;;;12.82;92.09;101374.84;5019273;28;20128;-52
2022/01/10 09:21:45;;;;;;;5.83;2.03;;;;;;;12.87;91.96;101380.44;5028003;28;20565;-54
2022/01/10 09:24:12;;;;;;;8.23;2.33;;;;;;;12.94;92.04;101388.59;5026725;28;20160;-52
2022/01/10 09:26:41;;;;;;;5.30;2.37;;;;;;;12.72;91.57;101352.38;5033929;28;20570;-51
2022/01/10 09:29:08;;;;;;;4.77;1.70;;;;;;;12.90;91.82;101387.47;5026865;28;20401;-50
2022/01/10 09:31:35;;;;;;;4.95;1.83;;;;;;;12.81;91.86;101375.94;5028108;28;20096;-53
2022/01/10 09:34:02;;;;;;;5.40;2.47;;;;;;;12.79;91.78;101375.38;5030721;28;20041;-52
2022/01/10 09:36:31;;;;;;;4.87;1.70;;;;;;;12.95;92.05;101379.06;5027705;28;20144;-53
2022/01/10 09:38:59;;;;;;;5.47;2.47;;;;;;;13.43;92.34;101379.72;5025939;28;20151;-53
2022/01/10 09:41:26;;;;;;;4.90;2.33;;;;;;;14.21;91.93;101385.00;5029343;28;20124;-52
2022/01/10 09:43:56;;;;;;;9.48;2.97;;;;;;;14.53;91.09;101375.34;5027763;28;20080;-52
2022/01/10 09:46:24;;;;;;;;;;;;;;;14.55;91.35;101385.19;5028035;28;20053;-53
2022/01/10 09:48:52;;;;;;;3.97;2.70;;;;;;;14.79;90.58;101378.91;5022710;28;20369;-52
2022/01/10 09:51:24;;;;;;;;;;;;;;;14.80;90.89;101387.06;5026225;28;20532;-53
2022/01/10 09:53:51;;;;;;;4.18;2.00;;;;;;;14.98;90.47;101391.19;5027924;28;19971;-51
2022/01/10 09:56:18;;;;;;;3.97;1.75;;;;;;;15.08;90.02;101390.28;5027286;28;20475;-52
2022/01/10 09:58:45;;;;;;;6.95;1.55;;;;;;;15.07;89.31;101377.34;5032109;28;20045;-51
2022/01/10 10:01:16;;;;;;;1.70;0.98;;;;;;;14.49;88.37;101386.31;5023352;28;20073;-52
2022/01/10 10:03:48;;;;;;;1.38;0.95;;;;;;;13.92;88.66;101381.97;5027906;28;20132;-49
2022/01/10 10:06:17;;;;;;;3.30;1.48;;;;;;;13.57;89.12;101369.63;5025887;28;20120;-52
2022/01/10 10:08:44;;;;;;;3.20;1.20;;;;;;;13.39;89.49;101387.84;5031434;28;20053;-51
2022/01/10 10:11:12;;;;;;;2.33;1.27;;;;;;;13.22;90.23;101382.47;5017192;28;20511;-50
2022/01/10 10:13:54;;;;;;;3.73;1.40;;;;;;;13.04;90.01;101395.06;5030033;28;20439;-51
2022/01/10 10:16:21;;;;;;;3.53;1.70;;;;;;;12.85;90.40;101365.84;5033475;28;20045;-52
2022/01/10 10:18:50;;;;;;;5.27;1.80;;;;;;;12.75;90.50;101363.88;5023943;28;20084;-51
2022/01/10 10:21:21;;;;;;;3.07;1.30;;;;;;;12.77;90.92;101370.03;5019770;28;21639;-50
2022/01/10 10:23:49;;;;;;;3.07;1.60;;;;;;;12.80;90.98;101379.88;5025336;28;20144;-53
2022/01/10 10:26:21;;;;;;;2.90;1.80;;;;;;;12.82;91.07;101388.84;5024167;28;20081;-52
2022/01/10 10:28:49;;;;;;;3.43;1.67;;;;;;;12.70;91.18;101366.66;5017839;28;20057;-53
2022/01/10 10:31:42;;;;;;;2.27;1.40;;;;;;;12.60;91.08;101365.78;5014822;28;22638;-51
2022/01/10 10:34:12;;;;;;;6.73;2.57;;;;;;;12.72;91.15;101383.22;5025094;28;20065;-48
2022/01/10 10:36:39;;;;;;;5.05;2.08;;;;;;;12.64;91.10;101378.97;5027265;28;20129;-51
2022/01/10 10:39:10;;;;;;;5.97;2.20;;;;;;;12.63;91.11;101370.84;5027259;28;20052;-49
2022/01/10 10:41:38;;;;;;;6.13;2.63;;;;;;;12.63;91.13;101373.63;5024038;28;20406;-52
2022/01/10 10:44:05;;;;;;;10.97;2.90;;;;;;;12.59;90.96;101381.75;5025095;28;20148;-51
2022/01/10 10:46:32;;;;;;;3.80;1.43;;;;;;;12.48;91.17;101366.88;5023715;28;20069;-49
2022/01/10 10:49:03;;;;;;;7.07;1.83;;;;;;;12.60;91.11;101391.00;5031003;28;20073;-48
2022/01/10 10:51:34;;;;;;;3.43;1.53;;;;;;;12.56;91.08;101377.53;5025616;28;20068;-50
2022/01/10 10:54:08;;;;;;;5.43;1.07;;;;;;;12.51;91.02;101387.88;5024499;28;22523;-50
2022/01/10 10:56:38;;;;;;;3.07;1.13;;;;;;;12.52;91.15;101387.59;5023439;28;20140;-51
2022/01/10 10:59:07;;;;;;;7.03;2.10;;;;;;;12.49;91.12;101382.53;5016215;28;20137;-52
2022/01/10 11:01:39;;;;;;;5.10;1.80;;;;;;;12.50;91.01;101386.19;5023094;28;20372;-53
2022/01/10 11:04:09;;;;;;;9.53;1.57;;;;;;;12.47;91.04;101379.16;5020822;28;20076;-52
2022/01/10 11:06:39;;;;;;;4.78;1.50;;;;;;;12.52;91.37;101382.00;5022787;28;20045;-49
2022/01/10 11:09:12;;;;;;;2.13;1.08;;;;;;;12.55;91.33;101361.00;5028584;28;20057;-51
2022/01/10 11:11:42;;;;;;;3.93;1.20;;;;;;;12.84;91.11;101374.53;5023139;28;20136;-48
2022/01/10 11:14:13;;;;;;;5.10;0.97;;;;;;;12.95;90.97;101374.28;5030581;28;20100;-50
2022/01/10 11:16:42;;;;;;;3.43;1.50;;;;;;;13.60;92.04;101373.84;5017858;28;20152;-50
2022/01/10 11:19:13;;;;;;;3.72;1.33;;;;;;;13.86;90.98;101375.50;5022322;28;20517;-52
2022/01/10 11:21:44;;;;;;;4.87;1.27;;;;;;;13.75;90.73;101379.47;5030357;28;20076;-50
2022/01/10 11:24:41;;;;;;;3.33;1.33;;;;;;;13.49;90.43;101368.22;5031406;28;20081;-51
2022/01/10 11:27:28;;;;;;;6.07;3.20;;;;;;;13.37;90.53;101364.88;5024579;28;20176;-52
2022/01/10 11:29:57;;;;;;;10.20;3.93;;;;;;;13.45;90.83;101372.72;5027822;28;20077;-51
2022/01/10 11:33:08;;;;;;;17.77;3.80;;;;;;;13.28;90.74;101367.38;5015161;28;20050;-50
2022/01/10 11:36:10;;;;;;;9.87;2.70;;;;;;;13.27;90.88;101359.25;4982859;28;20054;-49
2022/01/10 11:38:43;;;;;;;10.87;2.70;;;;;;;13.28;90.76;101356.16;5030018;28;20137;-51
2022/01/10 11:41:18;;;;;;;11.00;3.53;;;;;;;13.18;90.52;101344.91;5014818;28;20050;-48
2022/01/10 11:44:03;;;;;;;7.00;2.63;;;;;;;13.11;90.34;101351.91;5017621;28;20045;-52
2022/01/10 11:46:48;;;;;;;15.63;2.73;;;;;;;12.92;90.46;101330.00;5018333;28;20129;-53
2022/01/10 11:49:21;;;;;;;5.80;2.20;;;;;;;12.93;90.52;101333.66;5023978;28;20412;-50
2022/01/10 11:51:49;;;;;;;5.53;3.23;;;;;;;12.92;90.73;101335.63;5018756;28;20072;-52
2022/01/10 11:54:22;;;;;;;13.30;2.90;;;;;;;12.92;90.60;101337.56;5029888;28;20471;-52
2022/01/10 11:56:57;;;;;;;9.10;2.50;;;;;;;12.92;90.67;101324.41;5018902;28;20050;-50
2022/01/10 11:59:25;;;;;;;4.93;2.67;;;;;;;12.90;90.57;101332.25;5018260;28;20041;-49
2022/01/10 12:02:04;;;;;;;5.90;2.30;;;;;;;12.92;90.65;101316.00;5019037;28;20057;-51
2022/01/10 12:04:35;;;;;;;5.00;2.10;;;;;;;12.89;90.65;101308.13;5019493;28;20061;-50
2022/01/10 12:07:07;;;;;;;5.93;1.87;;;;;;;12.93;90.39;101314.88;5025174;28;20119;-52
2022/01/10 12:09:35;;;;;;;4.53;2.17;;;;;;;12.96;90.60;101317.13;5019238;28;20079;-51
2022/01/10 12:12:08;;;;;;;5.07;2.40;;;;;;;12.97;90.44;101303.94;5020516;28;20049;-49
2022/01/10 12:14:35;;;;;;;;;;;;;;;12.73;91.12;101301.66;5019548;28;20093;-55
2022/01/10 12:17:02;;;;;;;6.13;2.63;;;;;;;12.94;90.69;101299.72;5030350;28;19991;-50
2022/01/10 12:19:29;;;;;;;6.40;2.40;;;;;;;13.12;90.65;101306.75;5017435;28;20077;-56
2022/01/10 12:21:57;;;;;;;9.67;3.20;;;;;;;13.41;91.03;101290.25;5028355;28;20049;-53
2022/01/10 12:24:29;;;;;;;12.27;3.63;;;;;;;13.55;90.37;101298.09;5021869;28;20742;-56
2022/01/10 12:26:56;;;;;;;5.97;3.05;;;;;;;13.56;90.47;101285.72;5024191;28;20084;-55